Airport View

Enter AWOS ICAO identifier for current METAR.

ex. KFNL

KIKV 201140Z AUTO 12005KT 10SM OVC100 05/03 A3001 RMK AO2

20 Nov 2019 11:41

Frequency: 119.175

Phone: 515-965-5764

Other Area AWOS: KDSM - KAMW - KTNU - KBNW

TAF KDSM 200535Z 2006/2106 11004KT P6SM BKN100 FM201700 14013G23KT P6SM SCT250 FM210100 16013G21KT 4SM RA OVC020 WS020/18040KT